sensor_id;sensor_type;location;lat;lon;timestamp;P1;durP1;ratioP1;P2;durP2;ratioP2
18286;SDS011;9269;50.838;12.094;2022-10-16T00:01:50;1.10;;;0.83;;
18286;SDS011;9269;50.838;12.094;2022-10-16T00:04:19;1.87;;;0.90;;
18286;SDS011;9269;50.838;12.094;2022-10-16T00:06:48;1.80;;;0.60;;
18286;SDS011;9269;50.838;12.094;2022-10-16T00:09:17;0.93;;;0.90;;
18286;SDS011;9269;50.838;12.094;2022-10-16T00:11:49;1.23;;;0.70;;
18286;SDS011;9269;50.838;12.094;2022-10-16T00:14:19;0.93;;;0.70;;
18286;SDS011;9269;50.838;12.094;2022-10-16T00:16:48;2.30;;;0.83;;
18286;SDS011;9269;50.838;12.094;2022-10-16T00:19:18;1.07;;;0.70;;
18286;SDS011;9269;50.838;12.094;2022-10-16T00:21:46;0.80;;;0.73;;
18286;SDS011;9269;50.838;12.094;2022-10-16T00:24:17;2.57;;;0.80;;
18286;SDS011;9269;50.838;12.094;2022-10-16T00:26:45;2.03;;;0.90;;
18286;SDS011;9269;50.838;12.094;2022-10-16T00:29:18;2.10;;;1.10;;
18286;SDS011;9269;50.838;12.094;2022-10-16T00:31:47;2.67;;;1.10;;
18286;SDS011;9269;50.838;12.094;2022-10-16T00:34:18;2.17;;;1.30;;
18286;SDS011;9269;50.838;12.094;2022-10-16T00:36:47;0.90;;;0.90;;
18286;SDS011;9269;50.838;12.094;2022-10-16T00:39:15;2.80;;;0.90;;
18286;SDS011;9269;50.838;12.094;2022-10-16T00:41:44;0.93;;;0.87;;
18286;SDS011;9269;50.838;12.094;2022-10-16T00:47:17;1.57;;;0.90;;
18286;SDS011;9269;50.838;12.094;2022-10-16T00:49:51;2.27;;;1.10;;
18286;SDS011;9269;50.838;12.094;2022-10-16T00:52:23;2.50;;;1.10;;
18286;SDS011;9269;50.838;12.094;2022-10-16T00:54:52;2.40;;;0.97;;
18286;SDS011;9269;50.838;12.094;2022-10-16T00:57:23;2.20;;;1.20;;
18286;SDS011;9269;50.838;12.094;2022-10-16T00:59:52;0.83;;;0.83;;
18286;SDS011;9269;50.838;12.094;2022-10-16T01:02:21;0.93;;;0.93;;
18286;SDS011;9269;50.838;12.094;2022-10-16T01:04:52;1.00;;;0.80;;
18286;SDS011;9269;50.838;12.094;2022-10-16T01:07:30;1.17;;;0.90;;
18286;SDS011;9269;50.838;12.094;2022-10-16T01:10:10;1.13;;;0.80;;
18286;SDS011;9269;50.838;12.094;2022-10-16T01:12:50;0.87;;;0.87;;
18286;SDS011;9269;50.838;12.094;2022-10-16T01:15:26;1.17;;;1.07;;
18286;SDS011;9269;50.838;12.094;2022-10-16T01:18:04;1.20;;;1.00;;
18286;SDS011;9269;50.838;12.094;2022-10-16T01:20:37;1.07;;;0.97;;
18286;SDS011;9269;50.838;12.094;2022-10-16T01:23:16;1.43;;;0.93;;
18286;SDS011;9269;50.838;12.094;2022-10-16T01:25:59;2.93;;;1.20;;
18286;SDS011;9269;50.838;12.094;2022-10-16T01:28:49;1.97;;;0.90;;
18286;SDS011;9269;50.838;12.094;2022-10-16T01:31:25;1.37;;;1.03;;
18286;SDS011;9269;50.838;12.094;2022-10-16T01:33:59;3.30;;;1.40;;
18286;SDS011;9269;50.838;12.094;2022-10-16T01:36:35;1.67;;;1.50;;
18286;SDS011;9269;50.838;12.094;2022-10-16T01:39:08;1.50;;;1.40;;
18286;SDS011;9269;50.838;12.094;2022-10-16T01:41:41;1.60;;;1.50;;
18286;SDS011;9269;50.838;12.094;2022-10-16T01:44:17;1.10;;;1.10;;
18286;SDS011;9269;50.838;12.094;2022-10-16T01:46:50;1.50;;;1.40;;
18286;SDS011;9269;50.838;12.094;2022-10-16T01:49:20;1.77;;;1.40;;
18286;SDS011;9269;50.838;12.094;2022-10-16T01:51:52;1.40;;;1.30;;
18286;SDS011;9269;50.838;12.094;2022-10-16T01:54:27;1.47;;;1.00;;
18286;SDS011;9269;50.838;12.094;2022-10-16T01:56:58;2.53;;;1.30;;
18286;SDS011;9269;50.838;12.094;2022-10-16T01:59:29;3.57;;;1.10;;
18286;SDS011;9269;50.838;12.094;2022-10-16T02:02:01;1.73;;;1.07;;
18286;SDS011;9269;50.838;12.094;2022-10-16T02:04:36;1.17;;;0.93;;
18286;SDS011;9269;50.838;12.094;2022-10-16T02:07:07;1.70;;;0.90;;
18286;SDS011;9269;50.838;12.094;2022-10-16T02:09:36;1.60;;;1.07;;
18286;SDS011;9269;50.838;12.094;2022-10-16T02:12:06;0.90;;;0.90;;
18286;SDS011;9269;50.838;12.094;2022-10-16T02:14:41;1.03;;;1.03;;
18286;SDS011;9269;50.838;12.094;2022-10-16T02:17:10;1.23;;;1.13;;
18286;SDS011;9269;50.838;12.094;2022-10-16T02:19:40;0.93;;;0.93;;
18286;SDS011;9269;50.838;12.094;2022-10-16T02:22:11;1.90;;;1.00;;
18286;SDS011;9269;50.838;12.094;2022-10-16T02:24:46;0.87;;;0.87;;
18286;SDS011;9269;50.838;12.094;2022-10-16T02:27:22;1.33;;;1.23;;
18286;SDS011;9269;50.838;12.094;2022-10-16T02:29:57;2.10;;;1.00;;
18286;SDS011;9269;50.838;12.094;2022-10-16T02:32:34;1.23;;;1.10;;
18286;SDS011;9269;50.838;12.094;2022-10-16T02:35:07;1.07;;;1.07;;
18286;SDS011;9269;50.838;12.094;2022-10-16T02:37:37;1.10;;;1.10;;
18286;SDS011;9269;50.838;12.094;2022-10-16T02:40:08;0.90;;;0.90;;
18286;SDS011;9269;50.838;12.094;2022-10-16T02:42:38;2.37;;;1.20;;
18286;SDS011;9269;50.838;12.094;2022-10-16T02:45:12;1.30;;;1.20;;
18286;SDS011;9269;50.838;12.094;2022-10-16T02:47:41;1.47;;;1.00;;
18286;SDS011;9269;50.838;12.094;2022-10-16T02:50:09;3.33;;;1.10;;
18286;SDS011;9269;50.838;12.094;2022-10-16T02:52:38;1.40;;;1.10;;
18286;SDS011;9269;50.838;12.094;2022-10-16T02:55:07;1.10;;;1.10;;
18286;SDS011;9269;50.838;12.094;2022-10-16T02:57:36;1.40;;;1.30;;
18286;SDS011;9269;50.838;12.094;2022-10-16T03:00:07;2.30;;;1.33;;
18286;SDS011;9269;50.838;12.094;2022-10-16T03:02:39;1.47;;;1.20;;
18286;SDS011;9269;50.838;12.094;2022-10-16T03:05:08;1.00;;;0.90;;
18286;SDS011;9269;50.838;12.094;2022-10-16T03:07:37;1.00;;;1.00;;
18286;SDS011;9269;50.838;12.094;2022-10-16T03:10:06;1.83;;;1.00;;
18286;SDS011;9269;50.838;12.094;2022-10-16T03:12:36;0.80;;;0.80;;
18286;SDS011;9269;50.838;12.094;2022-10-16T03:15:05;1.20;;;1.10;;
18286;SDS011;9269;50.838;12.094;2022-10-16T03:17:35;1.37;;;1.10;;
18286;SDS011;9269;50.838;12.094;2022-10-16T03:20:04;1.13;;;1.10;;
18286;SDS011;9269;50.838;12.094;2022-10-16T03:22:33;1.50;;;1.20;;
18286;SDS011;9269;50.838;12.094;2022-10-16T03:25:02;3.70;;;1.20;;
18286;SDS011;9269;50.838;12.094;2022-10-16T03:27:30;1.43;;;1.00;;
18286;SDS011;9269;50.838;12.094;2022-10-16T03:29:59;2.00;;;1.47;;
18286;SDS011;9269;50.838;12.094;2022-10-16T03:32:27;1.33;;;1.30;;
18286;SDS011;9269;50.838;12.094;2022-10-16T03:34:57;1.53;;;1.20;;
18286;SDS011;9269;50.838;12.094;2022-10-16T03:37:28;2.60;;;1.37;;
18286;SDS011;9269;50.838;12.094;2022-10-16T03:39:57;1.90;;;1.30;;
18286;SDS011;9269;50.838;12.094;2022-10-16T03:42:28;1.20;;;1.10;;
18286;SDS011;9269;50.838;12.094;2022-10-16T03:44:57;2.07;;;1.20;;
18286;SDS011;9269;50.838;12.094;2022-10-16T03:47:26;1.00;;;1.00;;
18286;SDS011;9269;50.838;12.094;2022-10-16T03:49:55;1.23;;;1.10;;
18286;SDS011;9269;50.838;12.094;2022-10-16T03:52:25;1.53;;;1.33;;
18286;SDS011;9269;50.838;12.094;2022-10-16T03:54:53;1.10;;;1.00;;
18286;SDS011;9269;50.838;12.094;2022-10-16T03:57:22;1.23;;;1.20;;
18286;SDS011;9269;50.838;12.094;2022-10-16T03:59:51;1.10;;;1.10;;
18286;SDS011;9269;50.838;12.094;2022-10-16T04:02:20;1.40;;;1.30;;
18286;SDS011;9269;50.838;12.094;2022-10-16T04:04:48;1.33;;;1.23;;
18286;SDS011;9269;50.838;12.094;2022-10-16T04:07:17;1.63;;;1.53;;
18286;SDS011;9269;50.838;12.094;2022-10-16T04:09:47;2.60;;;1.57;;
18286;SDS011;9269;50.838;12.094;2022-10-16T04:12:15;2.17;;;1.30;;
18286;SDS011;9269;50.838;12.094;2022-10-16T04:14:44;1.50;;;1.40;;
18286;SDS011;9269;50.838;12.094;2022-10-16T04:17:12;2.30;;;1.47;;
18286;SDS011;9269;50.838;12.094;2022-10-16T04:19:41;1.93;;;1.40;;
18286;SDS011;9269;50.838;12.094;2022-10-16T04:22:09;1.27;;;0.90;;
18286;SDS011;9269;50.838;12.094;2022-10-16T04:24:38;1.43;;;1.13;;
18286;SDS011;9269;50.838;12.094;2022-10-16T04:27:08;1.03;;;1.03;;
18286;SDS011;9269;50.838;12.094;2022-10-16T04:29:36;2.50;;;1.10;;
18286;SDS011;9269;50.838;12.094;2022-10-16T04:32:05;0.90;;;0.90;;
18286;SDS011;9269;50.838;12.094;2022-10-16T04:34:36;0.90;;;0.90;;
18286;SDS011;9269;50.838;12.094;2022-10-16T04:37:07;2.50;;;1.47;;
18286;SDS011;9269;50.838;12.094;2022-10-16T04:39:36;0.87;;;0.87;;
18286;SDS011;9269;50.838;12.094;2022-10-16T04:42:04;1.77;;;1.10;;
18286;SDS011;9269;50.838;12.094;2022-10-16T04:44:34;1.30;;;0.80;;
18286;SDS011;9269;50.838;12.094;2022-10-16T04:47:02;1.10;;;1.10;;
18286;SDS011;9269;50.838;12.094;2022-10-16T04:49:31;0.80;;;0.70;;
18286;SDS011;9269;50.838;12.094;2022-10-16T04:52:00;1.60;;;1.50;;
18286;SDS011;9269;50.838;12.094;2022-10-16T04:54:28;2.03;;;1.10;;
18286;SDS011;9269;50.838;12.094;2022-10-16T04:56:57;1.60;;;1.50;;
18286;SDS011;9269;50.838;12.094;2022-10-16T04:59:28;1.77;;;1.67;;
18286;SDS011;9269;50.838;12.094;2022-10-16T05:01:58;2.17;;;1.70;;
18286;SDS011;9269;50.838;12.094;2022-10-16T05:04:27;3.17;;;1.57;;
18286;SDS011;9269;50.838;12.094;2022-10-16T05:06:57;1.30;;;1.20;;
18286;SDS011;9269;50.838;12.094;2022-10-16T05:09:26;2.30;;;1.23;;
18286;SDS011;9269;50.838;12.094;2022-10-16T05:11:54;1.10;;;1.00;;
18286;SDS011;9269;50.838;12.094;2022-10-16T05:14:23;2.67;;;0.90;;
18286;SDS011;9269;50.838;12.094;2022-10-16T05:16:52;1.53;;;1.07;;
18286;SDS011;9269;50.838;12.094;2022-10-16T05:19:22;0.83;;;0.80;;
18286;SDS011;9269;50.838;12.094;2022-10-16T05:21:54;1.10;;;1.10;;
18286;SDS011;9269;50.838;12.094;2022-10-16T05:24:23;2.20;;;1.00;;
18286;SDS011;9269;50.838;12.094;2022-10-16T05:26:51;1.00;;;0.90;;
18286;SDS011;9269;50.838;12.094;2022-10-16T05:29:20;1.57;;;1.10;;
18286;SDS011;9269;50.838;12.094;2022-10-16T05:31:50;1.47;;;1.27;;
18286;SDS011;9269;50.838;12.094;2022-10-16T05:34:23;1.03;;;0.80;;
18286;SDS011;9269;50.838;12.094;2022-10-16T05:36:51;1.47;;;1.10;;
18286;SDS011;9269;50.838;12.094;2022-10-16T05:39:20;0.87;;;0.87;;
18286;SDS011;9269;50.838;12.094;2022-10-16T05:41:52;1.47;;;1.00;;
18286;SDS011;9269;50.838;12.094;2022-10-16T05:44:20;1.40;;;1.30;;
18286;SDS011;9269;50.838;12.094;2022-10-16T05:46:49;0.90;;;0.90;;
18286;SDS011;9269;50.838;12.094;2022-10-16T05:49:17;1.30;;;1.10;;
18286;SDS011;9269;50.838;12.094;2022-10-16T05:51:47;1.43;;;1.33;;
18286;SDS011;9269;50.838;12.094;2022-10-16T05:54:16;1.80;;;1.70;;
18286;SDS011;9269;50.838;12.094;2022-10-16T05:56:44;2.17;;;1.97;;
18286;SDS011;9269;50.838;12.094;2022-10-16T05:59:13;1.73;;;1.20;;
18286;SDS011;9269;50.838;12.094;2022-10-16T06:01:41;0.80;;;0.80;;
18286;SDS011;9269;50.838;12.094;2022-10-16T06:04:10;1.23;;;1.13;;
18286;SDS011;9269;50.838;12.094;2022-10-16T06:06:39;1.33;;;1.00;;
18286;SDS011;9269;50.838;12.094;2022-10-16T06:09:09;1.37;;;0.60;;
18286;SDS011;9269;50.838;12.094;2022-10-16T06:11:38;1.00;;;0.90;;
18286;SDS011;9269;50.838;12.094;2022-10-16T06:14:07;0.87;;;0.87;;
18286;SDS011;9269;50.838;12.094;2022-10-16T06:16:36;1.47;;;0.80;;
18286;SDS011;9269;50.838;12.094;2022-10-16T06:19:05;0.93;;;0.93;;
18286;SDS011;9269;50.838;12.094;2022-10-16T06:21:34;0.90;;;0.90;;
18286;SDS011;9269;50.838;12.094;2022-10-16T06:24:03;0.70;;;0.70;;
18286;SDS011;9269;50.838;12.094;2022-10-16T06:26:33;0.70;;;0.70;;
18286;SDS011;9269;50.838;12.094;2022-10-16T06:29:01;1.43;;;0.67;;
18286;SDS011;9269;50.838;12.094;2022-10-16T06:31:30;0.80;;;0.80;;
18286;SDS011;9269;50.838;12.094;2022-10-16T06:34:00;1.00;;;1.00;;
18286;SDS011;9269;50.838;12.094;2022-10-16T06:36:31;0.93;;;0.87;;
18286;SDS011;9269;50.838;12.094;2022-10-16T06:38:59;1.00;;;0.90;;
18286;SDS011;9269;50.838;12.094;2022-10-16T06:41:28;1.00;;;1.00;;
18286;SDS011;9269;50.838;12.094;2022-10-16T06:43:58;1.30;;;1.17;;
18286;SDS011;9269;50.838;12.094;2022-10-16T06:46:26;1.10;;;1.10;;
18286;SDS011;9269;50.838;12.094;2022-10-16T06:48:55;1.13;;;1.13;;
18286;SDS011;9269;50.838;12.094;2022-10-16T06:51:23;2.33;;;1.70;;
18286;SDS011;9269;50.838;12.094;2022-10-16T06:53:53;1.27;;;1.23;;
18286;SDS011;9269;50.838;12.094;2022-10-16T06:56:30;1.13;;;1.07;;
18286;SDS011;9269;50.838;12.094;2022-10-16T06:59:01;0.93;;;0.93;;
18286;SDS011;9269;50.838;12.094;2022-10-16T07:01:30;1.10;;;0.90;;
18286;SDS011;9269;50.838;12.094;2022-10-16T07:04:00;1.20;;;1.10;;
18286;SDS011;9269;50.838;12.094;2022-10-16T07:06:31;1.10;;;0.90;;
18286;SDS011;9269;50.838;12.094;2022-10-16T07:09:01;0.93;;;0.87;;
18286;SDS011;9269;50.838;12.094;2022-10-16T07:11:32;0.67;;;0.67;;
18286;SDS011;9269;50.838;12.094;2022-10-16T07:14:02;0.80;;;0.63;;
18286;SDS011;9269;50.838;12.094;2022-10-16T07:16:32;0.80;;;0.77;;
18286;SDS011;9269;50.838;12.094;2022-10-16T07:19:01;0.90;;;0.90;;
18286;SDS011;9269;50.838;12.094;2022-10-16T07:21:31;0.80;;;0.63;;
18286;SDS011;9269;50.838;12.094;2022-10-16T07:24:05;1.73;;;0.70;;
18286;SDS011;9269;50.838;12.094;2022-10-16T07:26:35;1.80;;;0.90;;
18286;SDS011;9269;50.838;12.094;2022-10-16T07:29:09;1.43;;;0.70;;
18286;SDS011;9269;50.838;12.094;2022-10-16T07:31:40;1.10;;;0.80;;
18286;SDS011;9269;50.838;12.094;2022-10-16T07:34:09;0.87;;;0.87;;
18286;SDS011;9269;50.838;12.094;2022-10-16T07:36:39;1.83;;;0.70;;
18286;SDS011;9269;50.838;12.094;2022-10-16T07:39:08;1.13;;;1.03;;
18286;SDS011;9269;50.838;12.094;2022-10-16T07:41:38;1.83;;;0.83;;
18286;SDS011;9269;50.838;12.094;2022-10-16T07:44:09;1.53;;;1.07;;
18286;SDS011;9269;50.838;12.094;2022-10-16T07:46:38;1.00;;;1.00;;
18286;SDS011;9269;50.838;12.094;2022-10-16T07:49:08;1.00;;;1.00;;
18286;SDS011;9269;50.838;12.094;2022-10-16T07:51:39;1.47;;;1.00;;
18286;SDS011;9269;50.838;12.094;2022-10-16T07:54:07;1.70;;;1.00;;
18286;SDS011;9269;50.838;12.094;2022-10-16T07:56:36;1.10;;;1.10;;
18286;SDS011;9269;50.838;12.094;2022-10-16T07:59:10;0.80;;;0.80;;
18286;SDS011;9269;50.838;12.094;2022-10-16T08:01:39;1.43;;;0.80;;
18286;SDS011;9269;50.838;12.094;2022-10-16T08:04:08;0.93;;;0.93;;
18286;SDS011;9269;50.838;12.094;2022-10-16T08:06:41;0.87;;;0.83;;
18286;SDS011;9269;50.838;12.094;2022-10-16T08:09:10;1.43;;;1.17;;
18286;SDS011;9269;50.838;12.094;2022-10-16T08:11:38;0.73;;;0.73;;
18286;SDS011;9269;50.838;12.094;2022-10-16T08:14:07;1.23;;;1.13;;
18286;SDS011;9269;50.838;12.094;2022-10-16T08:16:42;1.30;;;1.20;;
18286;SDS011;9269;50.838;12.094;2022-10-16T08:19:10;1.10;;;1.10;;
18286;SDS011;9269;50.838;12.094;2022-10-16T08:21:42;2.47;;;1.20;;
18286;SDS011;9269;50.838;12.094;2022-10-16T08:24:11;2.70;;;1.80;;
18286;SDS011;9269;50.838;12.094;2022-10-16T08:26:41;1.70;;;1.60;;
18286;SDS011;9269;50.838;12.094;2022-10-16T08:29:10;2.10;;;1.50;;
18286;SDS011;9269;50.838;12.094;2022-10-16T08:31:38;1.77;;;1.60;;
18286;SDS011;9269;50.838;12.094;2022-10-16T08:34:08;2.97;;;1.90;;
18286;SDS011;9269;50.838;12.094;2022-10-16T08:36:37;2.00;;;1.90;;
18286;SDS011;9269;50.838;12.094;2022-10-16T08:39:07;1.70;;;1.60;;
18286;SDS011;9269;50.838;12.094;2022-10-16T08:42:01;1.73;;;1.63;;
18286;SDS011;9269;50.838;12.094;2022-10-16T08:47:48;2.20;;;2.00;;
18286;SDS011;9269;50.838;12.094;2022-10-16T08:50:24;2.07;;;1.87;;
18286;SDS011;9269;50.838;12.094;2022-10-16T08:52:54;1.87;;;1.50;;
18286;SDS011;9269;50.838;12.094;2022-10-16T08:55:30;1.93;;;1.77;;
18286;SDS011;9269;50.838;12.094;2022-10-16T08:58:05;3.63;;;2.10;;
18286;SDS011;9269;50.838;12.094;2022-10-16T09:00:39;1.70;;;1.60;;
18286;SDS011;9269;50.838;12.094;2022-10-16T09:03:14;2.70;;;1.70;;
18286;SDS011;9269;50.838;12.094;2022-10-16T09:06:00;2.07;;;1.77;;
18286;SDS011;9269;50.838;12.094;2022-10-16T09:08:57;1.97;;;1.70;;
18286;SDS011;9269;50.838;12.094;2022-10-16T09:11:40;2.13;;;2.00;;
18286;SDS011;9269;50.838;12.094;2022-10-16T09:14:32;1.60;;;1.50;;
18286;SDS011;9269;50.838;12.094;2022-10-16T09:17:20;2.13;;;2.00;;
18286;SDS011;9269;50.838;12.094;2022-10-16T09:20:03;2.50;;;2.20;;
18286;SDS011;9269;50.838;12.094;2022-10-16T09:22:43;3.17;;;1.80;;
18286;SDS011;9269;50.838;12.094;2022-10-16T09:25:13;2.27;;;2.00;;
18286;SDS011;9269;50.838;12.094;2022-10-16T09:27:44;2.53;;;2.03;;
18286;SDS011;9269;50.838;12.094;2022-10-16T09:30:16;2.50;;;2.10;;
18286;SDS011;9269;50.838;12.094;2022-10-16T09:32:47;2.13;;;2.03;;
18286;SDS011;9269;50.838;12.094;2022-10-16T09:35:18;2.07;;;1.97;;
18286;SDS011;9269;50.838;12.094;2022-10-16T09:37:55;3.53;;;3.20;;
18286;SDS011;9269;50.838;12.094;2022-10-16T09:40:25;5.90;;;5.30;;
18286;SDS011;9269;50.838;12.094;2022-10-16T09:42:57;4.03;;;3.63;;
18286;SDS011;9269;50.838;12.094;2022-10-16T09:45:33;3.00;;;2.70;;
18286;SDS011;9269;50.838;12.094;2022-10-16T09:48:17;2.93;;;2.73;;
18286;SDS011;9269;50.838;12.094;2022-10-16T09:50:55;4.23;;;3.83;;
18286;SDS011;9269;50.838;12.094;2022-10-16T09:53:27;2.73;;;2.53;;
18286;SDS011;9269;50.838;12.094;2022-10-16T09:56:21;2.87;;;2.63;;
18286;SDS011;9269;50.838;12.094;2022-10-16T09:58:51;3.07;;;2.70;;
18286;SDS011;9269;50.838;12.094;2022-10-16T10:01:21;2.53;;;2.30;;
18286;SDS011;9269;50.838;12.094;2022-10-16T10:03:56;3.77;;;2.50;;
18286;SDS011;9269;50.838;12.094;2022-10-16T10:06:28;3.73;;;2.73;;
18286;SDS011;9269;50.838;12.094;2022-10-16T10:09:02;4.77;;;2.50;;
18286;SDS011;9269;50.838;12.094;2022-10-16T10:11:36;2.43;;;2.23;;
18286;SDS011;9269;50.838;12.094;2022-10-16T10:14:09;2.40;;;2.20;;
18286;SDS011;9269;50.838;12.094;2022-10-16T10:16:48;2.33;;;2.13;;
18286;SDS011;9269;50.838;12.094;2022-10-16T10:19:19;2.27;;;1.77;;
18286;SDS011;9269;50.838;12.094;2022-10-16T10:21:53;2.23;;;2.03;;
18286;SDS011;9269;50.838;12.094;2022-10-16T10:24:23;2.03;;;1.93;;
18286;SDS011;9269;50.838;12.094;2022-10-16T10:26:54;2.20;;;2.00;;
18286;SDS011;9269;50.838;12.094;2022-10-16T10:29:35;2.53;;;2.33;;
18286;SDS011;9269;50.838;12.094;2022-10-16T10:32:15;3.00;;;2.07;;
18286;SDS011;9269;50.838;12.094;2022-10-16T10:34:52;2.07;;;1.90;;
18286;SDS011;9269;50.838;12.094;2022-10-16T10:37:38;2.60;;;2.30;;
18286;SDS011;9269;50.838;12.094;2022-10-16T10:40:21;2.33;;;2.07;;
18286;SDS011;9269;50.838;12.094;2022-10-16T10:42:59;3.00;;;2.70;;
18286;SDS011;9269;50.838;12.094;2022-10-16T10:45:37;3.40;;;2.90;;
18286;SDS011;9269;50.838;12.094;2022-10-16T10:48:22;2.30;;;2.10;;
18286;SDS011;9269;50.838;12.094;2022-10-16T10:51:08;2.50;;;1.77;;
18286;SDS011;9269;50.838;12.094;2022-10-16T10:53:51;2.70;;;1.90;;
18286;SDS011;9269;50.838;12.094;2022-10-16T10:56:43;2.90;;;2.00;;
18286;SDS011;9269;50.838;12.094;2022-10-16T10:59:21;1.60;;;1.50;;
18286;SDS011;9269;50.838;12.094;2022-10-16T11:02:13;2.00;;;1.90;;
18286;SDS011;9269;50.838;12.094;2022-10-16T11:04:49;2.40;;;1.73;;
18286;SDS011;9269;50.838;12.094;2022-10-16T11:07:37;2.20;;;2.00;;
18286;SDS011;9269;50.838;12.094;2022-10-16T11:10:18;1.60;;;1.50;;
18286;SDS011;9269;50.838;12.094;2022-10-16T11:12:52;1.80;;;1.43;;
18286;SDS011;9269;50.838;12.094;2022-10-16T11:15:24;1.87;;;1.70;;
18286;SDS011;9269;50.838;12.094;2022-10-16T11:17:57;2.20;;;1.60;;
18286;SDS011;9269;50.838;12.094;2022-10-16T11:20:37;1.90;;;1.50;;
18286;SDS011;9269;50.838;12.094;2022-10-16T11:23:12;2.30;;;1.60;;
18286;SDS011;9269;50.838;12.094;2022-10-16T11:25:44;1.80;;;1.70;;
18286;SDS011;9269;50.838;12.094;2022-10-16T11:28:17;1.17;;;1.17;;
18286;SDS011;9269;50.838;12.094;2022-10-16T11:30:57;1.40;;;1.30;;
18286;SDS011;9269;50.838;12.094;2022-10-16T11:33:30;1.77;;;1.60;;
18286;SDS011;9269;50.838;12.094;2022-10-16T11:36:07;1.20;;;1.17;;
18286;SDS011;9269;50.838;12.094;2022-10-16T11:38:42;1.77;;;1.30;;
18286;SDS011;9269;50.838;12.094;2022-10-16T11:41:18;1.70;;;1.33;;
18286;SDS011;9269;50.838;12.094;2022-10-16T11:43:55;1.37;;;1.27;;
18286;SDS011;9269;50.838;12.094;2022-10-16T11:46:34;2.07;;;1.10;;
18286;SDS011;9269;50.838;12.094;2022-10-16T11:49:26;1.23;;;1.13;;
18286;SDS011;9269;50.838;12.094;2022-10-16T11:51:59;4.67;;;1.63;;
18286;SDS011;9269;50.838;12.094;2022-10-16T11:54:35;1.30;;;1.20;;
18286;SDS011;9269;50.838;12.094;2022-10-16T11:57:09;1.40;;;1.10;;
18286;SDS011;9269;50.838;12.094;2022-10-16T11:59:43;1.57;;;1.30;;
18286;SDS011;9269;50.838;12.094;2022-10-16T12:02:23;3.67;;;1.57;;
18286;SDS011;9269;50.838;12.094;2022-10-16T12:05:03;2.30;;;1.60;;
18286;SDS011;9269;50.838;12.094;2022-10-16T12:07:41;1.73;;;1.20;;
18286;SDS011;9269;50.838;12.094;2022-10-16T12:10:20;2.90;;;1.47;;
18286;SDS011;9269;50.838;12.094;2022-10-16T12:12:53;1.13;;;1.13;;
18286;SDS011;9269;50.838;12.094;2022-10-16T12:15:29;1.40;;;1.30;;
18286;SDS011;9269;50.838;12.094;2022-10-16T12:18:22;1.00;;;1.00;;
18286;SDS011;9269;50.838;12.094;2022-10-16T12:20:54;1.40;;;1.30;;
18286;SDS011;9269;50.838;12.094;2022-10-16T12:23:26;1.27;;;1.17;;
18286;SDS011;9269;50.838;12.094;2022-10-16T12:25:55;1.70;;;1.27;;
18286;SDS011;9269;50.838;12.094;2022-10-16T12:28:26;1.20;;;1.10;;
18286;SDS011;9269;50.838;12.094;2022-10-16T12:31:00;1.20;;;1.20;;
18286;SDS011;9269;50.838;12.094;2022-10-16T12:33:30;1.00;;;1.00;;
18286;SDS011;9269;50.838;12.094;2022-10-16T12:36:01;1.17;;;1.17;;
18286;SDS011;9269;50.838;12.094;2022-10-16T12:38:35;1.43;;;1.33;;
18286;SDS011;9269;50.838;12.094;2022-10-16T12:41:06;1.03;;;1.03;;
18286;SDS011;9269;50.838;12.094;2022-10-16T12:43:42;2.60;;;2.07;;
18286;SDS011;9269;50.838;12.094;2022-10-16T12:46:26;2.43;;;2.23;;
18286;SDS011;9269;50.838;12.094;2022-10-16T12:49:06;1.70;;;1.60;;
18286;SDS011;9269;50.838;12.094;2022-10-16T12:51:52;1.70;;;1.60;;
18286;SDS011;9269;50.838;12.094;2022-10-16T12:54:22;1.83;;;1.73;;
18286;SDS011;9269;50.838;12.094;2022-10-16T12:57:00;3.43;;;1.80;;
18286;SDS011;9269;50.838;12.094;2022-10-16T12:59:38;1.60;;;1.50;;
18286;SDS011;9269;50.838;12.094;2022-10-16T13:02:28;4.40;;;3.90;;
18286;SDS011;9269;50.838;12.094;2022-10-16T13:05:22;3.80;;;3.40;;
18286;SDS011;9269;50.838;12.094;2022-10-16T13:08:05;3.93;;;3.63;;
18286;SDS011;9269;50.838;12.094;2022-10-16T13:10:50;7.00;;;6.30;;
18286;SDS011;9269;50.838;12.094;2022-10-16T13:13:43;4.60;;;4.20;;
18286;SDS011;9269;50.838;12.094;2022-10-16T13:16:25;3.13;;;2.80;;
18286;SDS011;9269;50.838;12.094;2022-10-16T13:19:06;2.20;;;2.00;;
18286;SDS011;9269;50.838;12.094;2022-10-16T13:21:43;2.73;;;2.13;;
18286;SDS011;9269;50.838;12.094;2022-10-16T13:24:22;2.63;;;2.40;;
18286;SDS011;9269;50.838;12.094;2022-10-16T13:27:07;3.50;;;2.37;;
18286;SDS011;9269;50.838;12.094;2022-10-16T13:29:44;3.30;;;2.13;;
18286;SDS011;9269;50.838;12.094;2022-10-16T13:32:14;2.00;;;1.80;;
18286;SDS011;9269;50.838;12.094;2022-10-16T13:34:48;3.20;;;2.53;;
18286;SDS011;9269;50.838;12.094;2022-10-16T13:37:21;3.73;;;2.57;;
18286;SDS011;9269;50.838;12.094;2022-10-16T13:39:51;2.73;;;1.90;;
18286;SDS011;9269;50.838;12.094;2022-10-16T13:42:35;2.67;;;2.30;;
18286;SDS011;9269;50.838;12.094;2022-10-16T13:45:04;3.23;;;2.63;;
18286;SDS011;9269;50.838;12.094;2022-10-16T13:47:37;2.23;;;1.67;;
18286;SDS011;9269;50.838;12.094;2022-10-16T13:50:10;2.07;;;1.40;;
18286;SDS011;9269;50.838;12.094;2022-10-16T13:52:40;2.33;;;1.40;;
18286;SDS011;9269;50.838;12.094;2022-10-16T13:55:12;1.40;;;1.30;;
18286;SDS011;9269;50.838;12.094;2022-10-16T13:57:47;1.97;;;1.80;;
18286;SDS011;9269;50.838;12.094;2022-10-16T14:00:20;1.53;;;1.40;;
18286;SDS011;9269;50.838;12.094;2022-10-16T14:02:51;1.97;;;1.43;;
18286;SDS011;9269;50.838;12.094;2022-10-16T14:05:29;1.57;;;1.47;;
18286;SDS011;9269;50.838;12.094;2022-10-16T14:07:58;1.43;;;1.33;;
18286;SDS011;9269;50.838;12.094;2022-10-16T14:10:29;1.67;;;1.40;;
18286;SDS011;9269;50.838;12.094;2022-10-16T14:13:01;1.53;;;1.43;;
18286;SDS011;9269;50.838;12.094;2022-10-16T14:15:35;1.97;;;1.50;;
18286;SDS011;9269;50.838;12.094;2022-10-16T14:18:05;1.47;;;1.20;;
18286;SDS011;9269;50.838;12.094;2022-10-16T14:20:35;1.40;;;1.30;;
18286;SDS011;9269;50.838;12.094;2022-10-16T14:23:18;1.47;;;1.23;;
18286;SDS011;9269;50.838;12.094;2022-10-16T14:25:48;2.83;;;1.20;;
18286;SDS011;9269;50.838;12.094;2022-10-16T14:28:18;1.33;;;1.20;;
18286;SDS011;9269;50.838;12.094;2022-10-16T14:30:52;1.60;;;1.50;;
18286;SDS011;9269;50.838;12.094;2022-10-16T14:33:25;1.20;;;1.10;;
18286;SDS011;9269;50.838;12.094;2022-10-16T14:36:03;0.93;;;0.93;;
18286;SDS011;9269;50.838;12.094;2022-10-16T14:38:33;1.07;;;1.00;;
18286;SDS011;9269;50.838;12.094;2022-10-16T14:41:02;1.47;;;0.80;;
18286;SDS011;9269;50.838;12.094;2022-10-16T14:43:35;1.10;;;1.00;;
18286;SDS011;9269;50.838;12.094;2022-10-16T14:46:06;0.73;;;0.70;;
18286;SDS011;9269;50.838;12.094;2022-10-16T14:48:40;0.90;;;0.90;;
18286;SDS011;9269;50.838;12.094;2022-10-16T14:51:13;0.70;;;0.70;;
18286;SDS011;9269;50.838;12.094;2022-10-16T14:53:42;1.47;;;0.80;;
18286;SDS011;9269;50.838;12.094;2022-10-16T14:56:14;1.33;;;0.80;;
18286;SDS011;9269;50.838;12.094;2022-10-16T14:58:45;1.37;;;0.70;;
18286;SDS011;9269;50.838;12.094;2022-10-16T15:01:14;0.80;;;0.70;;
18286;SDS011;9269;50.838;12.094;2022-10-16T15:03:43;1.40;;;1.10;;
18286;SDS011;9269;50.838;12.094;2022-10-16T15:06:14;0.70;;;0.70;;
18286;SDS011;9269;50.838;12.094;2022-10-16T15:08:45;0.50;;;0.50;;
18286;SDS011;9269;50.838;12.094;2022-10-16T15:11:14;0.97;;;0.97;;
18286;SDS011;9269;50.838;12.094;2022-10-16T15:13:45;2.27;;;1.20;;
18286;SDS011;9269;50.838;12.094;2022-10-16T15:16:15;0.70;;;0.70;;
18286;SDS011;9269;50.838;12.094;2022-10-16T15:18:44;1.20;;;1.10;;
18286;SDS011;9269;50.838;12.094;2022-10-16T15:21:17;1.03;;;1.00;;
18286;SDS011;9269;50.838;12.094;2022-10-16T15:23:51;0.87;;;0.87;;
18286;SDS011;9269;50.838;12.094;2022-10-16T15:26:20;0.90;;;0.90;;
18286;SDS011;9269;50.838;12.094;2022-10-16T15:28:49;1.20;;;0.97;;